Time,TemperatureF,DewpointF,PressureIn,WindDirection,WindDirectionDegrees,WindSpeedMPH,WindSpeedGustMPH,Humidity,HourlyPrecipIn,Conditions,Clouds,dailyrainin,SoftwareType,DateUTC
2013-02-11 00:00:00,28.8,17.4,29.89,North,0,0.0,0.0,62,0.00,,---,0.00,VWS V14.01,2013-02-11 07:00:00,
2013-02-11 00:05:00,28.4,17.1,29.89,North,0,0.0,0.0,62,0.00,,---,0.00,VWS V14.01,2013-02-11 07:05:00,
2013-02-11 00:10:00,28.3,17.3,29.89,NW,315,0.0,0.0,63,0.00,,---,0.00,VWS V14.01,2013-02-11 07:10:00,
2013-02-11 00:15:00,27.9,17.0,29.89,NW,315,0.2,0.2,63,0.00,,---,0.00,VWS V14.01,2013-02-11 07:15:00,
2013-02-11 00:20:00,27.7,17.1,29.89,NNW,338,0.0,0.0,64,0.00,,---,0.00,VWS V14.01,2013-02-11 07:20:00,
2013-02-11 00:25:00,27.4,17.5,29.90,North,0,1.1,1.1,66,0.00,,---,0.00,VWS V14.01,2013-02-11 07:25:00,
2013-02-11 00:30:00,27.4,17.5,29.90,North,0,0.0,0.0,66,0.00,,---,0.00,VWS V14.01,2013-02-11 07:30:00,
2013-02-11 00:35:00,27.4,17.2,29.90,NNE,22,1.1,1.1,65,0.00,,---,0.00,VWS V14.01,2013-02-11 07:35:00,
2013-02-11 00:40:00,27.4,16.8,29.90,NE,45,1.1,1.1,64,0.00,,---,0.00,VWS V14.01,2013-02-11 07:40:00,
2013-02-11 00:45:00,27.7,16.8,29.90,NE,45,0.2,0.2,63,0.00,,---,0.00,VWS V14.01,2013-02-11 07:45:00,
2013-02-11 00:50:00,27.7,16.4,29.90,NNE,22,0.2,0.2,62,0.00,,---,0.00,VWS V14.01,2013-02-11 07:50:00,
2013-02-11 00:55:00,27.7,16.4,29.90,ENE,68,1.3,1.3,62,0.00,,---,0.00,VWS V14.01,2013-02-11 07:55:00,
2013-02-11 01:00:00,27.9,16.6,29.90,NE,45,0.4,0.4,62,0.00,,---,0.00,VWS V14.01,2013-02-11 08:00:00,
2013-02-11 01:05:00,27.9,16.6,29.90,ENE,68,0.7,0.7,62,0.00,,---,0.00,VWS V14.01,2013-02-11 08:05:00,
2013-02-11 01:10:00,27.7,16.4,29.90,ENE,68,0.0,0.0,62,0.00,,---,0.00,VWS V14.01,2013-02-11 08:10:00,
2013-02-11 01:15:00,27.4,16.1,29.90,ENE,68,0.0,0.0,62,0.00,,---,0.00,VWS V14.01,2013-02-11 08:15:00,
2013-02-11 01:20:00,27.0,16.1,29.90,ESE,112,0.4,0.4,63,0.00,,---,0.00,VWS V14.01,2013-02-11 08:20:00,
2013-02-11 01:25:00,27.0,16.5,29.90,ESE,112,0.4,0.4,64,0.00,,---,0.00,VWS V14.01,2013-02-11 08:25:00,
2013-02-11 01:30:00,27.2,16.6,29.90,ESE,112,0.4,0.4,64,0.00,,---,0.00,VWS V14.01,2013-02-11 08:30:00,
2013-02-11 01:35:00,27.2,16.6,29.90,ESE,112,0.4,0.4,64,0.00,,---,0.00,VWS V14.01,2013-02-11 08:35:00,
2013-02-11 01:40:00,27.2,16.6,29.90,ESE,112,0.4,0.4,64,0.00,,---,0.00,VWS V14.01,2013-02-11 08:40:00,
2013-02-11 01:45:00,27.0,16.5,29.90,East,90,0.0,0.0,64,0.00,,---,0.00,VWS V14.01,2013-02-11 08:45:00,
2013-02-11 01:50:00,27.0,17.2,29.90,ESE,112,0.2,0.2,66,0.00,,---,0.00,VWS V14.01,2013-02-11 08:50:00,
2013-02-11 01:55:00,26.8,16.3,29.90,ESE,112,0.0,0.0,64,0.00,,---,0.00,VWS V14.01,2013-02-11 08:55:00,
2013-02-11 02:00:00,26.3,15.1,29.91,ESE,112,0.0,0.0,62,0.00,,---,0.00,VWS V14.01,2013-02-11 09:00:00,
2013-02-11 02:05:00,25.6,14.4,29.90,ESE,112,0.0,0.0,62,0.00,,---,0.00,VWS V14.01,2013-02-11 09:05:00,
2013-02-11 02:10:00,25.6,16.2,29.91,ENE,68,0.4,0.4,67,0.00,,---,0.00,VWS V14.01,2013-02-11 09:10:00,
2013-02-11 02:15:00,25.9,16.5,29.91,East,90,0.0,0.0,67,0.00,,---,0.00,VWS V14.01,2013-02-11 09:15:00,
2013-02-11 02:20:00,25.6,15.8,29.90,East,90,0.0,0.0,66,0.00,,---,0.00,VWS V14.01,2013-02-11 09:20:00,
2013-02-11 02:25:00,25.0,14.6,29.90,East,90,0.2,0.2,64,0.00,,---,0.00,VWS V14.01,2013-02-11 09:25:00,
2013-02-11 02:30:00,24.8,14.4,29.90,East,90,0.0,0.0,64,0.00,,---,0.00,VWS V14.01,2013-02-11 09:30:00,
2013-02-11 02:35:00,24.5,14.4,29.90,East,90,0.0,0.0,65,0.00,,---,0.00,VWS V14.01,2013-02-11 09:35:00,
2013-02-11 02:40:00,24.1,13.3,29.90,East,90,0.0,0.0,63,0.00,,---,0.00,VWS V14.01,2013-02-11 09:40:00,
2013-02-11 02:45:00,23.4,13.4,29.90,East,90,0.0,0.0,65,0.00,,---,0.00,VWS V14.01,2013-02-11 09:45:00,
2013-02-11 02:50:00,23.4,14.4,29.90,East,90,0.0,0.0,68,0.00,,---,0.01,VWS V14.01,2013-02-11 09:50:00,
2013-02-11 02:55:00,23.6,14.6,29.89,North,0,0.0,0.0,68,0.00,,---,0.00,VWS V14.01,2013-02-11 09:55:00,
2013-02-11 03:00:00,23.8,15.1,29.90,NW,315,0.4,0.4,69,0.00,,---,0.00,VWS V14.01,2013-02-11 10:00:00,
2013-02-11 03:05:00,23.9,15.2,29.89,NNW,338,0.0,0.0,69,0.00,,---,0.00,VWS V14.01,2013-02-11 10:05:00,
2013-02-11 03:10:00,23.8,14.8,29.89,NNW,338,0.0,0.0,68,0.00,,---,0.00,VWS V14.01,2013-02-11 10:10:00,
2013-02-11 03:15:00,23.8,14.8,29.89,WNW,292,0.2,0.2,68,0.00,,---,0.00,VWS V14.01,2013-02-11 10:15:00,
2013-02-11 03:20:00,23.8,15.1,29.89,NNE,22,0.4,0.4,69,0.00,,---,0.01,VWS V14.01,2013-02-11 10:20:00,
2013-02-11 03:25:00,23.8,14.8,29.89,NNE,22,0.0,0.0,68,0.00,,---,0.00,VWS V14.01,2013-02-11 10:25:00,
2013-02-11 03:30:00,23.6,14.9,29.89,NNW,338,0.0,0.0,69,0.00,,---,0.00,VWS V14.01,2013-02-11 10:30:00,
2013-02-11 03:35:00,23.6,14.9,29.89,North,0,0.4,0.4,69,0.00,,---,0.00,VWS V14.01,2013-02-11 10:35:00,
2013-02-11 03:40:00,23.4,14.4,29.89,North,0,0.0,0.0,68,0.00,,---,0.00,VWS V14.01,2013-02-11 10:40:00,
2013-02-11 03:45:00,23.4,14.8,29.89,NNE,22,0.0,0.0,69,0.00,,---,0.00,VWS V14.01,2013-02-11 10:45:00,
2013-02-11 03:50:00,23.4,14.4,29.89,ENE,68,0.0,0.0,68,0.00,,---,0.00,VWS V14.01,2013-02-11 10:50:00,
2013-02-11 03:55:00,23.0,14.4,29.89,ESE,112,0.4,0.4,69,0.00,,---,0.00,VWS V14.01,2013-02-11 10:55:00,
2013-02-11 04:00:00,23.4,14.8,29.89,SSW,202,0.2,0.2,69,0.00,,---,0.00,VWS V14.01,2013-02-11 11:00:00,
2013-02-11 04:05:00,23.4,14.4,29.88,SSW,202,0.0,0.0,68,0.00,,---,0.00,VWS V14.01,2013-02-11 11:05:00,
2013-02-11 04:10:00,23.0,14.0,29.88,NNE,22,2.0,2.0,68,0.00,,---,0.00,VWS V14.01,2013-02-11 11:10:00,
2013-02-11 04:15:00,22.7,14.4,29.89,East,90,0.0,0.0,70,0.00,,---,0.00,VWS V14.01,2013-02-11 11:15:00,
2013-02-11 04:20:00,22.5,13.9,29.89,ENE,68,0.4,0.4,69,0.00,,---,0.00,VWS V14.01,2013-02-11 11:20:00,
2013-02-11 04:25:00,22.7,16.6,29.89,SSE,158,0.4,0.4,77,0.00,,---,0.00,VWS V14.01,2013-02-11 11:25:00,
2013-02-11 04:30:00,22.7,16.9,29.89,ESE,112,0.2,0.2,78,0.00,,---,0.00,VWS V14.01,2013-02-11 11:30:00,
2013-02-11 04:35:00,22.7,16.6,29.89,ESE,112,0.0,0.0,77,0.00,,---,0.00,VWS V14.01,2013-02-11 11:35:00,
2013-02-11 04:40:00,22.3,15.3,29.89,East,90,0.0,0.0,74,0.00,,---,0.00,VWS V14.01,2013-02-11 11:40:00,
2013-02-11 04:45:00,22.0,15.3,29.89,NNE,22,0.0,0.0,75,0.00,,---,0.00,VWS V14.01,2013-02-11 11:45:00,
2013-02-11 04:50:00,21.6,14.9,29.89,NNE,22,0.4,0.4,75,0.00,,---,0.00,VWS V14.01,2013-02-11 11:50:00,
2013-02-11 04:55:00,21.4,15.0,29.89,NNE,22,0.0,0.0,76,0.00,,---,0.00,VWS V14.01,2013-02-11 11:55:00,
2013-02-11 05:00:00,21.2,15.4,29.89,NNE,22,0.2,0.2,78,0.00,,---,0.00,VWS V14.01,2013-02-11 12:00:00,
2013-02-11 05:05:00,21.4,15.6,29.89,ENE,68,0.0,0.0,78,0.00,,---,0.00,VWS V14.01,2013-02-11 12:05:00,
2013-02-11 05:10:00,21.6,16.4,29.89,East,90,0.2,0.2,80,0.00,,---,0.00,VWS V14.01,2013-02-11 12:10:00,
2013-02-11 05:15:00,21.8,16.0,29.89,South,180,0.0,0.0,78,0.00,,---,0.00,VWS V14.01,2013-02-11 12:15:00,
2013-02-11 05:20:00,22.0,16.2,29.89,SE,135,0.2,0.2,78,0.00,,---,0.00,VWS V14.01,2013-02-11 12:20:00,
2013-02-11 05:25:00,21.6,15.5,29.89,ESE,112,0.4,0.4,77,0.00,,---,0.00,VWS V14.01,2013-02-11 12:25:00,
2013-02-11 05:30:00,21.4,15.0,29.89,ENE,68,0.0,0.0,76,0.00,,---,0.00,VWS V14.01,2013-02-11 12:30:00,
2013-02-11 05:35:00,21.2,15.7,29.89,ENE,68,1.6,1.6,79,0.00,,---,0.00,VWS V14.01,2013-02-11 12:35:00,
2013-02-11 05:40:00,21.2,14.8,29.89,NE,45,0.7,0.7,76,0.00,,---,0.00,VWS V14.01,2013-02-11 12:40:00,
2013-02-11 05:45:00,21.1,15.3,29.90,ENE,68,0.0,0.0,78,0.00,,---,0.00,VWS V14.01,2013-02-11 12:45:00,
2013-02-11 05:50:00,21.1,15.0,29.90,ENE,68,0.0,0.0,77,0.00,,---,0.01,VWS V14.01,2013-02-11 12:50:00,
2013-02-11 05:55:00,21.4,16.5,29.90,East,90,0.2,0.2,81,0.00,,---,0.00,VWS V14.01,2013-02-11 12:55:00,
2013-02-11 06:00:00,21.2,15.4,29.90,East,90,0.0,0.0,78,0.00,,---,0.00,VWS V14.01,2013-02-11 13:00:00,
2013-02-11 06:05:00,21.2,15.7,29.90,East,90,0.0,0.0,79,0.00,,---,0.01,VWS V14.01,2013-02-11 13:05:00,
2013-02-11 06:10:00,21.2,16.0,29.90,East,90,0.4,0.4,80,0.00,,---,0.00,VWS V14.01,2013-02-11 13:10:00,
2013-02-11 06:15:00,21.1,15.9,29.90,East,90,0.9,0.9,80,0.00,,---,0.00,VWS V14.01,2013-02-11 13:15:00,
2013-02-11 06:20:00,21.1,15.9,29.90,East,90,0.0,0.0,80,0.00,,---,0.00,VWS V14.01,2013-02-11 13:20:00,
2013-02-11 06:25:00,20.7,15.2,29.90,East,90,0.0,0.0,79,0.00,,---,0.00,VWS V14.01,2013-02-11 13:25:00,
2013-02-11 06:30:00,20.9,16.3,29.90,East,90,0.2,0.2,82,0.00,,---,0.00,VWS V14.01,2013-02-11 13:30:00,
2013-02-11 06:35:00,20.9,15.4,29.91,East,90,0.0,0.0,79,0.00,,---,0.00,VWS V14.01,2013-02-11 13:35:00,
2013-02-11 06:40:00,20.3,14.6,29.91,East,90,0.0,0.0,78,0.00,,---,0.00,VWS V14.01,2013-02-11 13:40:00,
2013-02-11 06:45:00,20.0,14.6,29.91,East,90,0.0,0.0,79,0.00,,---,0.00,VWS V14.01,2013-02-11 13:45:00,
2013-02-11 06:50:00,20.2,15.6,29.91,ENE,68,0.4,0.4,82,0.00,,---,0.00,VWS V14.01,2013-02-11 13:50:00,
2013-02-11 06:55:00,20.5,16.2,29.91,ENE,68,0.0,0.0,83,0.00,,---,0.00,VWS V14.01,2013-02-11 13:55:00,
2013-02-11 07:00:00,20.5,15.9,29.91,ENE,68,0.2,0.2,82,0.00,,---,0.00,VWS V14.01,2013-02-11 14:00:00,
2013-02-11 07:05:00,20.7,16.1,29.92,ENE,68,0.0,0.0,82,0.00,,---,0.00,VWS V14.01,2013-02-11 14:05:00,
2013-02-11 07:10:00,20.5,15.6,29.92,ENE,68,0.0,0.0,81,0.00,,---,0.00,VWS V14.01,2013-02-11 14:10:00,
2013-02-11 07:15:00,20.7,16.1,29.92,East,90,0.0,0.0,82,0.00,,---,0.00,VWS V14.01,2013-02-11 14:15:00,
2013-02-11 07:20:00,21.1,16.5,29.92,East,90,0.0,0.0,82,0.00,,---,0.00,VWS V14.01,2013-02-11 14:20:00,
2013-02-11 07:25:00,21.4,17.0,29.92,East,90,0.0,0.0,83,0.00,,---,0.00,VWS V14.01,2013-02-11 14:25:00,
2013-02-11 07:30:00,22.0,17.6,29.92,East,90,0.0,0.0,83,0.00,,---,0.00,VWS V14.01,2013-02-11 14:30:00,
2013-02-11 07:35:00,23.6,18.9,29.92,East,90,0.0,0.0,82,0.00,,---,0.00,VWS V14.01,2013-02-11 14:35:00,
2013-02-11 07:40:00,25.6,20.0,29.92,East,90,0.0,0.0,79,0.00,,---,0.00,VWS V14.01,2013-02-11 14:40:00,
2013-02-11 07:45:00,27.2,19.4,29.92,East,90,0.0,0.0,72,0.00,,---,0.00,VWS V14.01,2013-02-11 14:45:00,
2013-02-11 07:50:00,27.9,19.4,29.93,SSE,158,0.0,0.0,70,0.00,,---,0.00,VWS V14.01,2013-02-11 14:50:00,
2013-02-11 07:55:00,30.2,22.3,29.93,SSE,158,0.0,0.0,72,0.00,,---,0.00,VWS V14.01,2013-02-11 14:55:00,
2013-02-11 08:00:00,33.7,22.8,29.93,SSE,158,0.0,0.0,64,0.00,,---,0.00,VWS V14.01,2013-02-11 15:00:00,
2013-02-11 08:05:00,36.0,22.3,29.93,ESE,112,0.4,0.4,57,0.00,,---,0.00,VWS V14.01,2013-02-11 15:05:00,
2013-02-11 08:10:00,36.4,20.5,29.93,ESE,112,0.0,0.0,52,0.00,,---,0.00,VWS V14.01,2013-02-11 15:10:00,
2013-02-11 08:15:00,37.1,21.1,29.93,ESE,112,0.4,0.4,52,0.00,,---,0.00,VWS V14.01,2013-02-11 15:15:00,
2013-02-11 08:20:00,36.7,19.4,29.93,East,90,0.0,0.0,49,0.00,,---,0.00,VWS V14.01,2013-02-11 15:20:00,
2013-02-11 08:25:00,38.3,21.3,29.93,East,90,0.0,0.0,50,0.00,,---,0.00,VWS V14.01,2013-02-11 15:25:00,
2013-02-11 08:30:00,40.1,22.5,29.93,East,90,0.2,0.2,49,0.00,,---,0.00,VWS V14.01,2013-02-11 15:30:00,
2013-02-11 08:35:00,41.0,21.8,29.93,East,90,0.0,0.0,46,0.00,,---,0.00,VWS V14.01,2013-02-11 15:35:00,
2013-02-11 08:40:00,40.7,18.3,29.93,NW,315,0.0,0.0,40,0.00,,---,0.00,VWS V14.01,2013-02-11 15:40:00,
2013-02-11 08:45:00,38.5,16.3,29.93,WNW,292,1.3,1.3,40,0.00,,---,0.00,VWS V14.01,2013-02-11 15:45:00,
2013-02-11 08:50:00,38.2,17.1,29.93,West,270,1.1,1.1,42,0.00,,---,0.00,VWS V14.01,2013-02-11 15:50:00,
2013-02-11 08:55:00,36.7,16.3,29.94,West,270,2.2,2.2,43,0.00,,---,0.00,VWS V14.01,2013-02-11 15:55:00,
2013-02-11 09:00:00,35.6,15.9,29.93,NW,315,2.2,2.2,44,0.00,,---,0.00,VWS V14.01,2013-02-11 16:00:00,
2013-02-11 09:05:00,35.6,16.4,29.93,WSW,248,3.4,3.4,45,0.00,,---,0.00,VWS V14.01,2013-02-11 16:05:00,
2013-02-11 09:10:00,35.6,17.4,29.93,WNW,292,2.0,2.0,47,0.00,,---,0.00,VWS V14.01,2013-02-11 16:10:00,
2013-02-11 09:15:00,36.0,17.7,29.93,WNW,292,0.4,0.4,47,0.00,,---,0.00,VWS V14.01,2013-02-11 16:15:00,
2013-02-11 09:20:00,36.9,18.1,29.94,NW,315,2.0,2.0,46,0.00,,---,0.00,VWS V14.01,2013-02-11 16:20:00,
2013-02-11 09:25:00,37.1,17.7,29.93,West,270,0.7,0.7,45,0.00,,---,0.00,VWS V14.01,2013-02-11 16:25:00,
2013-02-11 09:30:00,37.6,17.7,29.93,West,270,2.2,2.2,44,0.00,,---,0.00,VWS V14.01,2013-02-11 16:30:00,
2013-02-11 09:35:00,38.3,18.3,29.93,WSW,248,0.4,0.4,44,0.00,,---,0.00,VWS V14.01,2013-02-11 16:35:00,
2013-02-11 09:40:00,39.2,18.6,29.93,NW,315,2.7,2.7,43,0.00,,---,0.00,VWS V14.01,2013-02-11 16:40:00,
2013-02-11 09:45:00,41.0,17.4,29.93,WSW,248,0.9,0.9,38,0.00,,---,0.00,VWS V14.01,2013-02-11 16:45:00,
2013-02-11 09:50:00,40.5,17.5,29.93,NE,45,1.6,1.6,39,0.00,,---,0.00,VWS V14.01,2013-02-11 16:50:00,
2013-02-11 09:55:00,40.7,17.1,29.93,NNW,338,3.4,3.4,38,0.00,,---,0.00,VWS V14.01,2013-02-11 16:55:00,
2013-02-11 10:00:00,39.4,16.5,29.93,WSW,248,0.4,0.4,39,0.00,,---,0.00,VWS V14.01,2013-02-11 17:00:00,
2013-02-11 10:05:00,39.6,16.7,29.93,WSW,248,1.3,1.3,39,0.00,,---,0.00,VWS V14.01,2013-02-11 17:05:00,
2013-02-11 10:10:00,40.5,16.9,29.93,NW,315,1.8,1.8,38,0.00,,---,0.00,VWS V14.01,2013-02-11 17:10:00,
2013-02-11 10:15:00,40.0,17.1,29.93,NNE,22,0.7,0.7,39,0.00,,---,0.00,VWS V14.01,2013-02-11 17:15:00,
2013-02-11 10:20:00,40.5,16.3,29.93,West,270,1.8,1.8,37,0.00,,---,0.00,VWS V14.01,2013-02-11 17:20:00,
2013-02-11 10:25:00,40.5,16.9,29.93,NNW,338,0.9,0.9,38,0.00,,---,0.00,VWS V14.01,2013-02-11 17:25:00,
2013-02-11 10:30:00,41.4,16.5,29.92,West,270,2.5,2.5,36,0.00,,---,0.00,VWS V14.01,2013-02-11 17:30:00,
2013-02-11 10:35:00,40.3,15.5,29.92,NNW,338,0.7,0.7,36,0.00,,---,0.00,VWS V14.01,2013-02-11 17:35:00,
2013-02-11 10:40:00,41.0,15.5,29.92,WNW,292,2.5,2.5,35,0.00,,---,0.00,VWS V14.01,2013-02-11 17:40:00,
2013-02-11 10:45:00,41.0,14.1,29.92,SW,225,1.6,1.6,33,0.00,,---,0.00,VWS V14.01,2013-02-11 17:45:00,
2013-02-11 10:50:00,40.5,13.7,29.91,SW,225,0.0,0.0,33,0.00,,---,0.00,VWS V14.01,2013-02-11 17:50:00,
2013-02-11 10:55:00,40.0,13.2,29.92,SW,225,2.7,2.7,33,0.00,,---,0.00,VWS V14.01,2013-02-11 17:55:00,
2013-02-11 11:00:00,39.6,12.9,29.91,WSW,248,1.8,1.8,33,0.00,,---,0.00,VWS V14.01,2013-02-11 18:00:00,
2013-02-11 11:05:00,40.5,13.0,29.91,South,180,1.8,1.8,32,0.00,,---,0.00,VWS V14.01,2013-02-11 18:05:00,
2013-02-11 11:10:00,41.4,13.8,29.91,West,270,2.0,2.0,32,0.00,,---,0.00,VWS V14.01,2013-02-11 18:10:00,
2013-02-11 11:15:00,41.4,12.3,29.91,SSW,202,3.4,3.4,30,0.00,,---,0.00,VWS V14.01,2013-02-11 18:15:00,
2013-02-11 11:20:00,41.6,12.5,29.91,SSW,202,0.2,0.2,30,0.00,,---,0.00,VWS V14.01,2013-02-11 18:20:00,
2013-02-11 11:25:00,41.6,12.5,29.91,ESE,112,1.3,1.3,30,0.00,,---,0.00,VWS V14.01,2013-02-11 18:25:00,
2013-02-11 11:30:00,42.1,12.1,29.90,SSW,202,3.1,3.1,29,0.00,,---,0.00,VWS V14.01,2013-02-11 18:30:00,
2013-02-11 11:35:00,41.0,11.2,29.90,SW,225,4.7,4.7,29,0.00,,---,0.00,VWS V14.01,2013-02-11 18:35:00,
2013-02-11 11:40:00,41.4,11.5,29.90,South,180,2.0,2.0,29,0.00,,---,0.00,VWS V14.01,2013-02-11 18:40:00,
2013-02-11 11:45:00,41.9,11.2,29.90,SSE,158,0.2,0.2,28,0.00,,---,0.00,VWS V14.01,2013-02-11 18:45:00,
2013-02-11 11:50:00,42.3,11.5,29.90,SSW,202,3.8,3.8,28,0.00,,---,0.00,VWS V14.01,2013-02-11 18:50:00,
2013-02-11 11:55:00,42.1,12.1,29.90,SSW,202,1.1,1.1,29,0.00,,---,0.00,VWS V14.01,2013-02-11 18:55:00,
2013-02-11 12:00:00,41.8,11.1,29.89,SSW,202,3.8,3.8,28,0.00,,---,0.00,VWS V14.01,2013-02-11 19:00:00,
2013-02-11 12:05:00,41.8,11.9,29.89,ESE,112,0.4,0.4,29,0.00,,---,0.00,VWS V14.01,2013-02-11 19:05:00,
2013-02-11 12:10:00,42.8,12.8,29.89,WSW,248,1.8,1.8,29,0.00,,---,0.00,VWS V14.01,2013-02-11 19:10:00,
2013-02-11 12:15:00,42.1,11.4,29.89,SSW,202,2.7,2.7,28,0.00,,---,0.00,VWS V14.01,2013-02-11 19:15:00,
2013-02-11 12:20:00,42.5,9.2,29.89,SW,225,4.7,4.7,25,0.00,,---,0.00,VWS V14.01,2013-02-11 19:20:00,
2013-02-11 12:25:00,42.3,8.1,29.88,SSW,202,10.1,10.1,24,0.00,,---,0.00,VWS V14.01,2013-02-11 19:25:00,
2013-02-11 12:30:00,43.0,7.8,29.88,SW,225,3.6,3.6,23,0.00,,---,0.00,VWS V14.01,2013-02-11 19:30:00,
2013-02-11 12:35:00,43.4,8.1,29.88,SSE,158,3.1,3.1,23,0.00,,---,0.00,VWS V14.01,2013-02-11 19:35:00,
2013-02-11 12:40:00,43.2,4.8,29.88,SSE,158,5.4,5.4,20,0.00,,---,0.00,VWS V14.01,2013-02-11 19:40:00,
2013-02-11 12:45:00,43.7,3.0,29.88,South,180,4.5,4.5,18,0.00,,---,0.00,VWS V14.01,2013-02-11 19:45:00,
2013-02-11 12:50:00,44.1,5.6,29.87,SSW,202,5.4,5.4,20,0.00,,---,0.00,VWS V14.01,2013-02-11 19:50:00,
2013-02-11 12:55:00,43.7,3.0,29.87,South,180,5.6,5.6,18,0.00,,---,0.00,VWS V14.01,2013-02-11 19:55:00,
2013-02-11 13:00:00,43.2,-2.8,29.87,SW,225,9.8,9.8,14,0.00,,---,0.00,VWS V14.01,2013-02-11 20:00:00,
2013-02-11 13:05:00,43.6,0.4,29.87,SSW,202,6.3,6.3,16,0.00,,---,0.00,VWS V14.01,2013-02-11 20:05:00,
2013-02-11 13:10:00,43.7,1.8,29.86,SSW,202,3.8,3.8,17,0.00,,---,0.00,VWS V14.01,2013-02-11 20:10:00,
2013-02-11 13:15:00,43.7,1.8,29.86,SSW,202,4.3,4.3,17,0.00,,---,0.00,VWS V14.01,2013-02-11 20:15:00,
2013-02-11 13:20:00,44.5,1.1,29.86,SSE,158,3.6,3.6,16,0.00,,---,0.00,VWS V14.01,2013-02-11 20:20:00,
2013-02-11 13:25:00,44.6,1.2,29.85,SSE,158,4.7,4.7,16,0.00,,---,0.00,VWS V14.01,2013-02-11 20:25:00,
2013-02-11 13:30:00,44.8,1.4,29.85,SW,225,6.5,6.5,16,0.00,,---,0.00,VWS V14.01,2013-02-11 20:30:00,
2013-02-11 13:35:00,43.9,0.6,29.85,WSW,248,2.0,2.0,16,0.00,,---,0.00,VWS V14.01,2013-02-11 20:35:00,
2013-02-11 13:40:00,44.3,0.9,29.85,SW,225,6.3,6.3,16,0.00,,---,0.00,VWS V14.01,2013-02-11 20:40:00,
2013-02-11 13:45:00,44.8,1.4,29.85,SW,225,7.4,7.4,16,0.00,,---,0.00,VWS V14.01,2013-02-11 20:45:00,
2013-02-11 13:50:00,44.6,1.2,29.85,SSW,202,6.3,6.3,16,0.00,,---,0.00,VWS V14.01,2013-02-11 20:50:00,
2013-02-11 13:55:00,44.5,2.4,29.85,SSW,202,1.3,1.3,17,0.00,,---,0.00,VWS V14.01,2013-02-11 20:55:00,
2013-02-11 14:00:00,45.4,3.2,29.84,SSE,158,3.8,3.8,17,0.00,,---,0.00,VWS V14.01,2013-02-11 21:00:00,
2013-02-11 14:05:00,45.5,3.2,29.84,SW,225,7.6,7.6,17,0.00,,---,0.00,VWS V14.01,2013-02-11 21:05:00,
2013-02-11 14:10:00,44.5,3.7,29.83,SW,225,5.1,5.1,18,0.00,,---,0.00,VWS V14.01,2013-02-11 21:10:00,
2013-02-11 14:15:00,44.5,3.7,29.84,South,180,1.1,1.1,18,0.00,,---,0.00,VWS V14.01,2013-02-11 21:15:00,
2013-02-11 14:20:00,45.5,1.9,29.84,SW,225,5.6,5.6,16,0.00,,---,0.00,VWS V14.01,2013-02-11 21:20:00,
2013-02-11 14:25:00,45.7,0.7,29.83,SW,225,8.5,8.5,15,0.00,,---,0.00,VWS V14.01,2013-02-11 21:25:00,
2013-02-11 14:30:00,45.2,1.7,29.83,SSE,158,4.5,4.5,16,0.00,,---,0.00,VWS V14.01,2013-02-11 21:30:00,
2013-02-11 14:35:00,45.7,0.7,29.83,SSE,158,8.3,8.3,15,0.00,,---,0.00,VWS V14.01,2013-02-11 21:35:00,
2013-02-11 14:40:00,45.7,0.7,29.83,SSW,202,2.5,2.5,15,0.00,,---,0.00,VWS V14.01,2013-02-11 21:40:00,
2013-02-11 14:45:00,44.6,-0.2,29.83,SW,225,7.6,7.6,15,0.00,,---,0.00,VWS V14.01,2013-02-11 21:45:00,
2013-02-11 14:50:00,44.1,0.8,29.83,SW,225,4.9,4.9,16,0.00,,---,0.00,VWS V14.01,2013-02-11 21:50:00,
2013-02-11 14:55:00,43.9,0.6,29.83,SSW,202,5.6,5.6,16,0.00,,---,0.00,VWS V14.01,2013-02-11 21:55:00,
2013-02-11 15:00:00,44.1,0.8,29.83,SSW,202,4.3,4.3,16,0.00,,---,0.00,VWS V14.01,2013-02-11 22:00:00,
2013-02-11 15:05:00,44.3,2.2,29.83,South,180,4.3,4.3,17,0.00,,---,0.00,VWS V14.01,2013-02-11 22:05:00,
2013-02-11 15:10:00,43.9,1.9,29.83,SSE,158,3.1,3.1,17,0.00,,---,0.00,VWS V14.01,2013-02-11 22:10:00,
2013-02-11 15:15:00,43.6,1.7,29.83,SW,225,5.4,5.4,17,0.00,,---,0.00,VWS V14.01,2013-02-11 22:15:00,
2013-02-11 15:20:00,43.6,1.7,29.83,SW,225,4.3,4.3,17,0.00,,---,0.00,VWS V14.01,2013-02-11 22:20:00,
2013-02-11 15:25:00,43.6,2.9,29.83,SW,225,4.7,4.7,18,0.00,,---,0.00,VWS V14.01,2013-02-11 22:25:00,
2013-02-11 15:30:00,43.7,3.0,29.83,SW,225,4.5,4.5,18,0.00,,---,0.00,VWS V14.01,2013-02-11 22:30:00,
2013-02-11 15:35:00,43.4,2.7,29.83,SW,225,9.2,9.2,18,0.00,,---,0.00,VWS V14.01,2013-02-11 22:35:00,
2013-02-11 15:40:00,42.7,4.4,29.83,West,270,4.7,4.7,20,0.00,,---,0.00,VWS V14.01,2013-02-11 22:40:00,
2013-02-11 15:45:00,42.7,5.5,29.84,SW,225,7.6,7.6,21,0.00,,---,0.00,VWS V14.01,2013-02-11 22:45:00,
2013-02-11 15:50:00,42.5,6.3,29.84,WSW,248,4.7,4.7,22,0.00,,---,0.00,VWS V14.01,2013-02-11 22:50:00,
2013-02-11 15:55:00,42.5,7.3,29.84,SW,225,7.2,7.2,23,0.00,,---,0.00,VWS V14.01,2013-02-11 22:55:00,
2013-02-11 16:00:00,42.1,7.9,29.84,WSW,248,11.2,11.2,24,0.00,,---,0.00,VWS V14.01,2013-02-11 23:00:00,
2013-02-11 16:05:00,41.6,7.5,29.84,WSW,248,4.0,4.0,24,0.00,,---,0.00,VWS V14.01,2013-02-11 23:05:00,
2013-02-11 16:10:00,41.8,8.6,29.84,SW,225,4.7,4.7,25,0.00,,---,0.00,VWS V14.01,2013-02-11 23:10:00,
2013-02-11 16:15:00,41.6,9.3,29.84,SSW,202,6.3,6.3,26,0.00,,---,0.00,VWS V14.01,2013-02-11 23:15:00,
2013-02-11 16:20:00,41.6,10.1,29.84,SW,225,9.4,9.4,27,0.00,,---,0.00,VWS V14.01,2013-02-11 23:20:00,
2013-02-11 16:25:00,41.4,10.8,29.84,West,270,4.0,4.0,28,0.00,,---,0.00,VWS V14.01,2013-02-11 23:25:00,
2013-02-11 16:30:00,40.9,11.1,29.84,WSW,248,6.3,6.3,29,0.00,,---,0.00,VWS V14.01,2013-02-11 23:30:00,
2013-02-11 16:35:00,40.3,12.1,29.84,SW,225,7.6,7.6,31,0.00,,---,0.00,VWS V14.01,2013-02-11 23:35:00,
2013-02-11 16:40:00,40.1,12.6,29.84,WSW,248,5.1,5.1,32,0.00,,---,0.00,VWS V14.01,2013-02-11 23:40:00,
2013-02-11 16:45:00,40.0,13.2,29.84,SSW,202,6.3,6.3,33,0.00,,---,0.00,VWS V14.01,2013-02-11 23:45:00,
2013-02-11 16:50:00,39.4,14.0,29.85,West,270,7.2,7.2,35,0.00,,---,0.00,VWS V14.01,2013-02-11 23:50:00,
2013-02-11 16:55:00,39.4,14.7,29.85,WSW,248,4.9,4.9,36,0.00,,---,0.00,VWS V14.01,2013-02-11 23:55:00,
2013-02-11 17:00:00,39.2,14.5,29.85,SSW,202,6.9,6.9,36,0.00,,---,0.00,VWS V14.01,2013-02-12 00:00:00,
2013-02-11 17:05:00,39.2,14.5,29.85,SSW,202,8.5,8.5,36,0.00,,---,0.00,VWS V14.01,2013-02-12 00:05:00,
2013-02-11 17:10:00,39.1,15.0,29.85,WSW,248,9.8,9.8,37,0.00,,---,0.00,VWS V14.01,2013-02-12 00:10:00,
2013-02-11 17:15:00,38.7,14.7,29.85,West,270,4.3,4.3,37,0.00,,---,0.00,VWS V14.01,2013-02-12 00:15:00,
2013-02-11 17:20:00,38.9,14.9,29.85,WSW,248,1.3,1.3,37,0.00,,---,0.00,VWS V14.01,2013-02-12 00:20:00,
2013-02-11 17:25:00,38.9,14.9,29.85,WSW,248,2.9,2.9,37,0.00,,---,0.00,VWS V14.01,2013-02-12 00:25:00,
2013-02-11 17:30:00,38.9,14.9,29.85,SW,225,0.4,0.4,37,0.00,,---,0.00,VWS V14.01,2013-02-12 00:30:00,
2013-02-11 17:35:00,38.9,14.2,29.85,West,270,3.4,3.4,36,0.00,,---,0.00,VWS V14.01,2013-02-12 00:35:00,
2013-02-11 17:40:00,38.9,14.2,29.85,WSW,248,4.7,4.7,36,0.00,,---,0.00,VWS V14.01,2013-02-12 00:40:00,
2013-02-11 17:45:00,38.9,13.6,29.86,SW,225,7.6,7.6,35,0.00,,---,0.00,VWS V14.01,2013-02-12 00:45:00,
2013-02-11 17:50:00,37.8,17.3,29.86,NNE,22,8.3,8.3,43,0.00,,---,0.00,VWS V14.01,2013-02-12 00:50:00,
2013-02-11 17:55:00,36.9,17.6,29.87,NNW,338,5.4,5.4,45,0.00,,---,0.00,VWS V14.01,2013-02-12 00:55:00,
2013-02-11 18:00:00,36.5,17.2,29.87,North,0,4.0,4.0,45,0.00,,---,0.00,VWS V14.01,2013-02-12 01:00:00,
2013-02-11 18:05:00,36.4,17.1,29.88,WNW,292,5.4,5.6,45,0.00,,---,0.00,VWS V14.01,2013-02-12 01:05:00,
2013-02-11 18:10:00,36.4,17.6,29.88,North,0,5.8,5.8,46,0.00,,---,0.00,VWS V14.01,2013-02-12 01:10:00,
2013-02-11 18:15:00,36.2,17.9,29.88,NW,315,4.9,4.9,47,0.00,,---,0.01,VWS V14.01,2013-02-12 01:15:00,
2013-02-11 18:20:00,36.2,17.9,29.88,NE,45,6.3,6.3,47,0.00,,---,0.00,VWS V14.01,2013-02-12 01:20:00,
2013-02-11 18:25:00,36.0,18.2,29.88,NNW,338,8.7,8.7,48,0.00,,---,0.00,VWS V14.01,2013-02-12 01:25:00,
2013-02-11 18:30:00,35.6,18.8,29.88,NNE,22,8.9,8.9,50,0.00,,---,0.00,VWS V14.01,2013-02-12 01:30:00,
2013-02-11 18:35:00,35.5,19.2,29.88,NW,315,6.5,6.5,51,0.00,,---,0.00,VWS V14.01,2013-02-12 01:35:00,
2013-02-11 18:40:00,35.3,19.5,29.88,NW,315,8.5,8.5,52,0.00,,---,0.00,VWS V14.01,2013-02-12 01:40:00,
2013-02-11 18:45:00,34.9,19.5,29.89,NW,315,11.4,11.4,53,0.00,,---,0.00,VWS V14.01,2013-02-12 01:45:00,
2013-02-11 18:50:00,34.7,19.3,29.89,North,0,3.4,3.4,53,0.00,,---,0.00,VWS V14.01,2013-02-12 01:50:00,
2013-02-11 18:55:00,34.6,19.7,29.89,WNW,292,7.8,7.8,54,0.00,,---,0.00,VWS V14.01,2013-02-12 01:55:00,
2013-02-11 19:00:00,34.4,19.9,29.90,West,270,7.6,7.8,55,0.00,,---,0.01,VWS V14.01,2013-02-12 02:00:00,
2013-02-11 19:05:00,34.4,19.9,29.89,North,0,7.6,7.6,55,0.00,,---,0.00,VWS V14.01,2013-02-12 02:05:00,
2013-02-11 19:10:00,34.2,20.1,29.90,NW,315,3.4,3.4,56,0.00,,---,0.00,VWS V14.01,2013-02-12 02:10:00,
2013-02-11 19:15:00,34.2,20.1,29.90,WNW,292,9.4,9.4,56,0.00,,---,0.00,VWS V14.01,2013-02-12 02:15:00,
2013-02-11 19:20:00,33.8,20.6,29.90,North,0,6.5,6.5,58,0.00,,---,0.00,VWS V14.01,2013-02-12 02:20:00,
2013-02-11 19:25:00,33.7,20.9,29.90,NNW,338,6.3,6.3,59,0.00,,---,0.00,VWS V14.01,2013-02-12 02:25:00,
2013-02-11 19:30:00,33.5,20.7,29.90,NW,315,10.1,10.1,59,0.00,,---,0.00,VWS V14.01,2013-02-12 02:30:00,
2013-02-11 19:35:00,33.1,20.7,29.91,North,0,8.1,8.1,60,0.00,,---,0.00,VWS V14.01,2013-02-12 02:35:00,
2013-02-11 19:40:00,32.9,20.5,29.91,North,0,6.9,6.9,60,0.00,,---,0.00,VWS V14.01,2013-02-12 02:40:00,
2013-02-11 19:45:00,32.9,20.5,29.91,North,0,8.5,8.5,60,0.00,,---,0.00,VWS V14.01,2013-02-12 02:45:00,
2013-02-11 19:50:00,32.8,20.1,29.91,NW,315,8.1,8.1,59,0.00,,---,0.00,VWS V14.01,2013-02-12 02:50:00,
2013-02-11 19:55:00,32.8,20.1,29.91,NNE,22,7.8,7.8,59,0.00,,---,0.00,VWS V14.01,2013-02-12 02:55:00,
2013-02-11 20:00:00,32.6,19.9,29.91,NNW,338,4.0,4.0,59,0.00,,---,0.00,VWS V14.01,2013-02-12 03:00:00,
2013-02-11 20:05:00,32.6,19.9,29.91,WNW,292,8.5,8.5,59,0.00,,---,0.00,VWS V14.01,2013-02-12 03:05:00,
2013-02-11 20:10:00,32.4,19.7,29.91,NNW,338,7.2,7.2,59,0.00,,---,0.00,VWS V14.01,2013-02-12 03:10:00,
2013-02-11 20:15:00,32.4,19.7,29.91,North,0,6.3,6.3,59,0.00,,---,0.01,VWS V14.01,2013-02-12 03:15:00,
2013-02-11 20:20:00,32.4,19.3,29.91,NNW,338,3.6,3.6,58,0.00,,---,0.00,VWS V14.01,2013-02-12 03:20:00,
2013-02-11 20:25:00,32.4,19.3,29.92,NNW,338,2.0,2.0,58,0.00,,---,0.00,VWS V14.01,2013-02-12 03:25:00,
2013-02-11 20:30:00,32.4,19.3,29.91,NNW,338,5.8,5.8,58,0.00,,---,0.00,VWS V14.01,2013-02-12 03:30:00,
2013-02-11 20:35:00,32.4,20.1,29.91,NNW,338,4.0,4.0,60,0.00,,---,0.00,VWS V14.01,2013-02-12 03:35:00,
2013-02-11 20:40:00,32.0,20.9,29.92,NNW,338,7.2,7.2,63,0.00,,---,0.00,VWS V14.01,2013-02-12 03:40:00,
2013-02-11 20:45:00,31.7,21.3,29.91,North,0,4.7,4.7,65,0.00,,---,0.00,VWS V14.01,2013-02-12 03:45:00,
2013-02-11 20:50:00,31.5,21.1,29.91,NE,45,6.5,6.5,65,0.00,,---,0.00,VWS V14.01,2013-02-12 03:50:00,
2013-02-11 20:55:00,31.5,21.1,29.91,NNE,22,7.6,7.6,65,0.00,,---,0.00,VWS V14.01,2013-02-12 03:55:00,
2013-02-11 21:00:00,31.5,20.7,29.91,NE,45,6.3,6.3,64,0.00,,---,0.00,VWS V14.01,2013-02-12 04:00:00,
2013-02-11 21:05:00,31.5,20.7,29.91,NNE,22,4.5,4.5,64,0.00,,---,0.00,VWS V14.01,2013-02-12 04:05:00,
2013-02-11 21:10:00,31.5,20.7,29.91,NE,45,5.6,5.6,64,0.00,,---,0.00,VWS V14.01,2013-02-12 04:10:00,
2013-02-11 21:15:00,31.5,20.4,29.90,NNE,22,4.7,4.7,63,0.00,,---,0.00,VWS V14.01,2013-02-12 04:15:00,
2013-02-11 21:19:00,31.5,20.4,29.90,NE,45,10.1,10.1,63,0.00,,---,0.00,VWS V14.01,2013-02-12 04:19:00,
2013-02-11 21:24:00,31.7,20.2,29.90,NE,45,4.0,4.0,62,0.00,,---,0.00,VWS V14.01,2013-02-12 04:24:00,
2013-02-11 21:29:00,31.7,19.8,29.89,NE,45,7.8,7.8,61,0.00,,---,0.00,VWS V14.01,2013-02-12 04:29:00,
2013-02-11 21:34:00,32.0,19.7,29.89,NNE,22,3.4,3.4,60,0.00,,---,0.00,VWS V14.01,2013-02-12 04:34:00,
2013-02-11 21:39:00,32.0,19.3,29.89,NE,45,3.6,3.6,59,0.00,,---,0.00,VWS V14.01,2013-02-12 04:39:00,
2013-02-11 21:44:00,32.0,18.9,29.89,NNE,22,3.4,3.4,58,0.00,,---,0.00,VWS V14.01,2013-02-12 04:44:00,
2013-02-11 21:49:00,32.2,18.3,29.89,NNE,22,0.4,0.4,56,0.00,,---,0.00,VWS V14.01,2013-02-12 04:49:00,
2013-02-11 21:54:00,32.2,18.3,29.89,NNE,22,2.5,3.8,56,0.00,,---,0.00,VWS V14.01,2013-02-12 04:54:00,
2013-02-11 21:59:00,32.2,17.9,29.88,North,0,1.1,1.1,55,0.00,,---,0.00,VWS V14.01,2013-02-12 04:59:00,
2013-02-11 22:00:00,32.2,17.9,29.89,NNW,338,0.4,0.4,55,0.00,,---,0.00,VWS V14.01,2013-02-12 05:00:00,
2013-02-11 22:05:00,32.0,17.7,29.88,WNW,292,2.7,2.7,55,0.00,,---,0.00,VWS V14.01,2013-02-12 05:05:00,
2013-02-11 22:10:00,31.9,18.0,29.89,WNW,292,4.9,5.4,56,0.00,,---,0.00,VWS V14.01,2013-02-12 05:10:00,
2013-02-11 22:15:00,31.7,18.2,29.88,NW,315,6.9,6.9,57,0.00,,---,0.00,VWS V14.01,2013-02-12 05:15:00,
2013-02-11 22:20:00,31.7,18.2,29.89,NW,315,7.6,7.6,57,0.00,,---,0.00,VWS V14.01,2013-02-12 05:20:00,
2013-02-11 22:25:00,31.3,18.2,29.89,North,0,1.6,1.6,58,0.00,,---,0.00,VWS V14.01,2013-02-12 05:25:00,
2013-02-11 22:30:00,31.1,18.9,29.88,WNW,292,1.8,1.8,60,0.00,,---,0.00,VWS V14.01,2013-02-12 05:30:00,
2013-02-11 22:35:00,31.0,19.1,29.88,NW,315,5.6,5.6,61,0.00,,---,0.00,VWS V14.01,2013-02-12 05:35:00,
2013-02-11 22:40:00,30.6,19.1,29.88,North,0,3.8,3.8,62,0.00,,---,0.00,VWS V14.01,2013-02-12 05:40:00,
2013-02-11 22:45:00,30.4,19.0,29.88,North,0,0.9,0.9,62,0.00,,---,0.00,VWS V14.01,2013-02-12 05:45:00,
2013-02-11 22:50:00,30.2,19.5,29.88,North,0,1.8,1.8,64,0.00,,---,0.00,VWS V14.01,2013-02-12 05:50:00,
2013-02-11 22:55:00,29.9,19.2,29.88,NW,315,0.0,0.0,64,0.00,,---,0.00,VWS V14.01,2013-02-12 05:55:00,
2013-02-11 23:00:00,29.5,19.6,29.88,WNW,292,2.5,2.5,66,0.00,,---,0.00,VWS V14.01,2013-02-12 06:00:00,
2013-02-11 23:05:00,29.5,19.6,29.88,WNW,292,2.0,2.0,66,0.00,,---,0.00,VWS V14.01,2013-02-12 06:05:00,
2013-02-11 23:10:00,29.3,19.4,29.88,West,270,3.4,3.4,66,0.00,,---,0.00,VWS V14.01,2013-02-12 06:10:00,
2013-02-11 23:15:00,29.3,20.1,29.88,NW,315,4.3,4.3,68,0.00,,---,0.00,VWS V14.01,2013-02-12 06:15:00,
2013-02-11 23:20:00,29.3,20.7,29.88,WNW,292,1.8,1.8,70,0.00,,---,0.00,VWS V14.01,2013-02-12 06:20:00,
2013-02-11 23:25:00,29.2,21.3,29.88,NW,315,3.4,3.4,72,0.00,,---,0.00,VWS V14.01,2013-02-12 06:25:00,
2013-02-11 23:30:00,29.2,22.0,29.88,North,0,6.0,6.0,74,0.00,,---,0.00,VWS V14.01,2013-02-12 06:30:00,
2013-02-11 23:35:00,29.2,22.0,29.88,NW,315,0.9,0.9,74,0.00,,---,0.00,VWS V14.01,2013-02-12 06:35:00,
2013-02-11 23:40:00,29.2,22.3,29.88,NNW,338,2.0,2.0,75,0.00,,---,0.00,VWS V14.01,2013-02-12 06:40:00,
2013-02-11 23:45:00,29.0,22.1,29.88,NW,315,5.1,5.1,75,0.00,,---,0.00,VWS V14.01,2013-02-12 06:45:00,
2013-02-11 23:50:00,29.0,22.1,29.88,WNW,292,8.3,8.3,75,0.00,,---,0.00,VWS V14.01,2013-02-12 06:50:00,
2013-02-11 23:55:00,28.8,21.9,29.88,NW,315,2.5,2.5,75,0.00,,---,0.00,VWS V14.01,2013-02-12 06:55:00,